Pineville, Louisiana
Current Conditions -  °F | °C
As of 7:25 AM on Sunday 23 Nov 2014 (Local Time) from KAEX Reporting Station
Moderate Rain Moderate Rain  
Wind Chill: 64°   Ceiling: 1000
Heat Index: 64°   Visibility: 2.5mi
Dew Point: 62°   Wind: 16mph
Humidity: 93%   Direction: 160°SSE
Pressure: 29.47"   Gusts: 30mph
Location:  31.32°N, 92.43°W
Report Text: KAEX 231325Z 16014G26KT 2 1/2SM RA BR BKN010 OVC016 18/17 A2947 RMK AO2 PK WND 15026/1322 WSHFT 1311 CIG 007V011 P0003 T01780167
Loading
Personal Weather Stations






























Interactive Weather Map New forecast layout! Learn more

10-Day Weather Forecast

Advertisements
Track Severe Weather on mobile